Latest Coastal Weather Observations for Point Perpendicular

IDN60701

Issued at 8:21 pm EST Friday 26 August 2016 (issued every 10 minutes, with the page automatically refreshed every 10 minutes)

About coastal observations | Map of coastal stations | Coastal observations for NSW | Marine services | Other Formats
Station Details ID: 068151 Name: POINT PERPENDICULAR AWS Lat: -35.09 Lon: 150.80 Height: 85.0 m
Data from the previous 72 hours. | See also: Recent months at Point Perpendicular
Date/Time
EST
Temp
°C
Wind Pressure Rain since
9am
mm
Weather Cloud Vis
km
Sea
Height
m
Swell
Dir  Spd
kts
Gust
kts
hPa Trend Height
m
Period
s
Dir
26/08:00pm 12.1 W 1 2 1020.4 - 2.0 - - - - - - -
26/07:30pm 12.7 W 1 2 1020.4 - 2.0 - - - - - - -
26/07:00pm 13.7 S 4 5 1020.1 - 2.0 - - - - - - -
26/06:30pm 13.7 S 5 7 1019.7 - 2.0 - - - - - - -
26/06:00pm 13.9 S 7 11 1019.2 - 2.0 - - - - - - -
26/05:30pm 13.7 S 6 9 1018.9 - 2.0 - - - - - - -
26/05:00pm 13.8 S 6 12 1018.7 - 2.0 - - - - - - -
26/04:30pm 14.0 SSW 7 12 1018.6 - 2.0 - - - - - - -
26/04:00pm 14.1 SE 6 12 1018.7 - 2.0 - - - - - - -
26/03:30pm 13.9 SSW 8 14 1018.2 - 2.0 - - - - - - -
26/03:00pm 13.1 SSW 7 9 1018.4 - 2.0 - - - - - - -
26/02:30pm 13.0 SSW 6 9 1018.3 - 2.0 - - - - - - -
26/02:00pm 12.9 S 7 10 1018.3 - 2.0 - - - - - - -
26/01:30pm 12.8 SSE 7 11 1018.3 - 2.0 - - - - - - -
26/01:00pm 13.2 S 8 13 1018.5 - 2.0 - - - - - - -
26/12:30pm 12.6 SSW 10 15 1018.7 - 2.0 - - - - - - -
26/12:00pm 12.1 SSW 9 15 1018.7 - 2.0 - - - - - - -
26/11:30am 12.1 SSW 10 17 1018.9 - 2.0 - - - - - - -
26/11:00am 12.2 SSW 11 17 1019.0 - 2.0 - - - - - - -
26/10:30am 11.8 SW 9 15 1018.9 - 2.0 - - - - - - -
26/10:00am 11.0 SW 8 13 1019.1 - 2.0 - - - - - - -
26/09:30am 11.2 WSW 6 12 1018.8 - 2.0 - - - - - - -
26/09:00am 10.1 SW 5 7 1019.2 - 9.2 Rain - - - - - -
26/08:30am 10.2 WSW 6 9 1019.0 - 8.2 - - - - - - -
26/08:00am 9.8 WSW 7 11 1018.7 - 8.2 - - - - - - -
26/07:30am 9.6 - - - 1018.3 - 8.2 - - - - - - -
26/07:00am 9.5 - - - 1017.9 - 8.2 - - - - - - -
26/06:30am 9.9 - - - 1017.4 - 8.2 - - - - - - -
26/06:00am 9.9 - - - 1017.1 - 8.2 - - - - - - -
26/05:30am 9.8 - - - 1016.7 - 8.2 - - - - - - -
26/05:00am 9.9 - - - 1016.5 - 8.2 - - - - - - -
26/04:30am 9.7 - - - 1016.1 - 8.2 - - - - - - -
26/04:00am 9.8 - - - 1015.8 - 8.2 - - - - - - -
26/03:30am 9.6 - - - 1015.5 - 8.2 - - - - - - -
26/03:00am 9.5 - - - 1015.3 - 8.2 - - - - - - -
26/02:30am 9.2 - - - 1015.2 - 8.2 - - - - - - -
26/02:00am 9.2 - - - 1015.6 - 8.2 - - - - - - -
26/01:30am 9.3 - - - 1015.6 - 8.2 - - - - - - -
26/01:00am 9.4 - - - 1015.3 - 8.2 - - - - - - -
26/12:30am 8.7 - - - 1015.7 - 8.0 - - - - - - -
26/12:00am 8.4 - - - 1016.0 - 7.8 Recent precip. - - - - - -
 
Date/Time
EST
Temp
°C
Wind Pressure Rain since
9am
mm
Weather Cloud Vis
km
Sea
Height
m
Swell
Dir  Spd
kts
Gust
kts
hPa Trend Height
m
Period
s
Dir
25/11:30pm 8.7 - - - 1016.0 - 7.2 - - - - - - -
25/11:00pm 9.3 - - - 1014.9 - 5.8 - - - - - - -
25/10:30pm 9.2 - - - 1015.1 - 3.4 - - - - - - -
25/10:00pm 9.8 - - - 1014.7 - 1.2 - - - - - - -
25/09:30pm 10.0 - - - 1014.9 - 1.2 - - - - - - -
25/09:00pm 10.5 - - - 1014.3 - 1.2 Recent precip. - - - - - -
25/08:30pm 10.3 SW 5 10 1014.0 - 1.2 - - - - - - -
25/08:00pm 9.7 SW 10 17 1014.0 - 1.0 - - - - - - -
25/07:30pm 10.1 SW 10 17 1013.2 - 0.2 - - - - - - -
25/07:00pm 12.0 S 7 13 1012.9 - 0.2 - - - - - - -
25/06:30pm 13.3 SSW 1 2 1012.3 - 0.0 - - - - - - -
25/06:00pm 13.7 SSW 3 5 1011.8 - 0.0 - - - - - - -
25/05:30pm 13.7 S 4 6 1011.5 - 0.0 - - - - - - -
25/05:00pm 13.7 SSE 5 8 1011.2 - 0.0 - - - - - - -
25/04:30pm 13.5 SSE 6 9 1010.8 - 0.0 - - - - - - -
25/04:00pm 14.1 S 7 11 1010.6 - 0.0 - - - - - - -
25/03:30pm 14.1 S 8 12 1010.5 - 0.0 - - - - - - -
25/03:00pm 14.2 S 8 13 1010.4 - 0.0 - - - - - - -
25/02:30pm 14.3 S 9 14 1010.2 - 0.0 - - - - - - -
25/02:00pm 14.1 SSW 10 16 1010.1 - 0.0 - - - - - - -
25/01:30pm 13.8 SSW 10 16 1009.9 - 0.0 - - - - - - -
25/01:00pm 13.4 SSW 10 15 1009.9 - 0.0 - - - - - - -
25/12:30pm 13.0 SSW 11 17 1010.1 - 0.0 - - - - - - -
25/12:00pm 12.6 SW 10 16 1010.4 - 0.0 - - - - - - -
25/11:30am 12.5 SW 10 18 1010.6 - 0.0 - - - - - - -
25/11:00am 12.3 SW 11 19 1010.5 - 0.0 - - - - - - -
25/10:30am 12.0 SW 10 17 1010.6 - 0.0 - - - - - - -
25/10:00am 11.8 SW 11 18 1010.7 - 0.0 - - - - - - -
25/09:30am 11.5 SW 13 21 1010.4 - 0.0 - - - - - - -
25/09:00am 11.4 SW 12 22 1010.1 - 85.4 - - - - - - -
25/08:30am 11.3 SW 11 19 1010.1 - 85.4 - - - - - - -
25/08:00am 11.2 - - - 1009.8 - 85.4 - - - - - - -
25/07:30am 10.8 - - - 1009.7 - 85.4 - - - - - - -
25/07:00am 10.9 - - - 1009.1 - 85.4 - - - - - - -
25/06:30am 10.7 - - - 1008.8 - 85.4 - - - - - - -
25/06:00am 10.3 - - - 1008.3 - 85.2 Recent precip. - - - - - -
25/05:30am 10.3 - - - 1007.9 - 85.2 - - - - - - -
25/05:00am 10.4 - - - 1007.9 - 85.0 - - - - - - -
25/04:30am 10.4 - - - 1007.6 - 84.8 - - - - - - -
25/04:00am 10.2 - - - 1007.6 - 84.2 - - - - - - -
25/03:30am 9.7 - - - 1007.6 - 82.6 - - - - - - -
25/03:00am 9.6 - - - 1007.3 - 81.4 Rain - - - - - -
25/02:30am 9.3 - - - 1007.4 - 80.8 - - - - - - -
25/02:00am 9.3 - - - 1007.3 - 80.0 - - - - - - -
25/01:30am 9.3 - - - 1007.5 - 77.8 - - - - - - -
25/01:00am 9.3 - - - 1007.7 - 73.0 - - - - - - -
25/12:30am 9.5 - - - 1008.3 - 67.0 - - - - - - -
25/12:00am 9.6 - - - 1007.6 - 59.0 Rain - - - - - -
 
Date/Time
EST
Temp
°C
Wind Pressure Rain since
9am
mm
Weather Cloud Vis
km
Sea
Height
m
Swell
Dir  Spd
kts
Gust
kts
hPa Trend Height
m
Period
s
Dir
24/11:30pm 9.6 - - - 1008.4 - 58.4 - - - - - - -
24/11:00pm 9.8 - - - 1008.2 - 56.6 - - - - - - -
24/10:30pm 10.8 - - - 1008.7 - 53.0 - - - - - - -
24/10:00pm 11.4 - - - 1008.2 - 51.0 - - - - - - -
24/09:30pm 10.9 - - - 1008.7 - 49.6 - - - - - - -
24/09:00pm 11.2 - - - 1008.5 - 48.0 Rain - - - - - -
24/08:30pm 10.7 - - - 1008.8 - 45.0 - - - - - - -
24/08:00pm 10.6 - - - 1008.9 - 42.4 - - - - - - -
24/07:30pm 10.2 - - - 1010.0 - 37.4 - - - - - - -
24/07:00pm 11.4 - - - 1009.6 - 32.8 - - - - - - -
24/06:30pm 11.5 - - - 1009.0 - 31.2 - - - - - - -
24/06:00pm 11.4 - - - 1009.1 - 28.8 Rain - - - - - -
24/05:30pm 12.0 - - - 1008.1 - 23.6 - - - - - - -
24/05:00pm 12.0 - - - 1008.3 - 21.8 - - - - - - -
24/04:30pm 11.8 - - - 1008.4 - 21.0 - - - - - - -
24/04:00pm 11.8 - - - 1008.9 - 20.2 - - - - - - -
24/03:30pm 12.0 - - - 1009.5 - 17.8 - - - - - - -
24/03:00pm 12.1 - - - 1009.6 - 16.4 Rain - - - - - -
24/02:30pm 11.0 - - - 1009.9 - 14.0 - - - - - - -
24/02:00pm 11.5 - - - 1010.0 - 8.8 - - - - - - -
24/01:30pm 12.3 SE 5 10 1010.2 - 4.2 - - - - - - -
24/01:00pm 12.8 SSE 5 10 1009.9 - 2.2 - - - - - - -
24/12:30pm 12.9 SSE 5 11 1010.6 - 1.8 - - - - - - -
24/12:00pm 12.1 S 5 7 1011.7 - 1.4 Rain - - - - - -
24/11:30am 12.5 ESE 5 10 1012.6 - 0.8 - - - - - - -
24/11:00am 13.4 ESE 5 11 1013.2 - 0.0 - - - - - - -
24/10:30am 12.7 SW 6 9 1013.2 - 0.0 - - - - - - -
24/10:00am 12.0 SW 7 10 1013.8 - 0.0 - - - - - - -
24/09:30am 11.4 SW 9 14 1014.1 - 0.0 - - - - - - -
24/09:00am 11.4 - - - 1014.6 - 32.0 - - - - - - -
24/08:30am 11.4 - - - 1014.8 - 32.0 - - - - - - -
24/08:00am 11.4 - - - 1014.6 - 32.0 - - - - - - -
24/07:30am 11.1 - - - 1014.4 - 32.0 - - - - - - -
24/07:00am 11.2 - - - 1014.5 - 32.0 - - - - - - -
24/06:30am 11.4 - - - 1014.2 - 32.0 - - - - - - -
24/06:00am 11.5 - - - 1014.2 - 32.0 Recent precip. - - - - - -
24/05:30am 11.4 - - - 1014.8 - 32.0 - - - - - - -
24/05:00am 11.2 - - - 1015.0 - 31.8 - - - - - - -
24/04:30am 10.8 - - - 1014.9 - 31.8 - - - - - - -
24/04:00am 11.0 - - - 1014.9 - 31.2 - - - - - - -
24/03:30am 11.2 - - - 1015.1 - 31.0 - - - - - - -
24/03:00am 11.4 - - - 1015.3 - 30.6 Recent precip. - - - - - -
24/02:30am 11.3 - - - 1015.1 - 30.4 - - - - - - -
24/02:00am 11.5 - - - 1015.7 - 29.4 - - - - - - -
24/01:30am 11.7 - - - 1016.2 - 28.4 - - - - - - -
24/01:00am 11.8 - - - 1016.2 - 27.4 - - - - - - -
24/12:30am 12.3 - - - 1016.4 - 24.6 - - - - - - -
24/12:00am 12.6 - - - 1015.8 - 24.2 Recent precip. - - - - - -
 
Date/Time
EST
Temp
°C
Wind Pressure Rain since
9am
mm
Weather Cloud Vis
km
Sea
Height
m
Swell
Dir  Spd
kts
Gust
kts
hPa Trend Height
m
Period
s
Dir
23/11:30pm 12.3 - - - 1016.6 - 23.8 - - - - - - -
23/11:00pm 12.2 - - - 1016.5 - 22.8 - - - - - - -
23/10:30pm 12.6 - - - 1016.4 - 22.4 - - - - - - -
23/10:00pm 12.5 - - - 1016.2 - 20.8 - - - - - - -
23/09:30pm 12.3 - - - 1016.6 - 19.6 - - - - - - -
23/09:00pm 12.5 - - - 1016.6 - 18.2 Recent precip. - - - - - -
23/08:30pm 12.2 - - - 1016.4 - 17.6 - - - - - - -

Other Formats:

Comma delimited format used in spreadsheet applications
http://www.bom.gov.au/fwo/IDN60701/IDN60701.95940.axf

JavaScript Object Notation format (JSON) in row-major order
http://www.bom.gov.au/fwo/IDN60701/IDN60701.95940.json